createdAt,value
2022-10-03T00:00:01.478Z,4262
2022-10-03T00:01:01.199Z,3365
2022-10-03T00:02:01.380Z,4348
2022-10-03T00:03:01.333Z,3720
2022-10-03T00:05:01.530Z,4926
2022-10-03T00:06:01.310Z,3394
2022-10-03T00:07:01.288Z,4302
2022-10-03T00:08:01.192Z,3476
2022-10-03T00:10:01.481Z,4335
2022-10-03T00:11:01.187Z,3813
2022-10-03T00:12:01.174Z,3015
2022-10-03T00:13:01.189Z,3945
2022-10-03T00:15:01.476Z,4106
2022-10-03T00:16:01.251Z,2929
2022-10-03T00:17:01.194Z,3649
2022-10-03T00:18:01.197Z,3813
2022-10-03T00:20:01.483Z,3607
2022-10-03T00:21:01.194Z,2734
2022-10-03T00:22:01.202Z,3632
2022-10-03T00:23:01.195Z,4011
2022-10-03T00:25:01.486Z,4072
2022-10-03T00:26:01.294Z,3057
2022-10-03T00:27:01.296Z,4056
2022-10-03T00:28:01.318Z,3040
2022-10-03T00:30:01.493Z,3573
2022-10-03T00:31:01.216Z,2905
2022-10-03T00:32:01.182Z,3744
2022-10-03T00:33:01.188Z,3813
2022-10-03T00:35:01.485Z,3824
2022-10-03T00:36:01.194Z,2815
2022-10-03T00:37:01.199Z,3710
2022-10-03T00:38:01.188Z,3854
2022-10-03T00:40:01.497Z,3755
2022-10-03T00:41:01.193Z,2611
2022-10-03T00:42:01.210Z,3563
2022-10-03T00:43:01.188Z,2793
2022-10-03T00:45:01.498Z,2509
2022-10-03T00:46:01.210Z,3744
2022-10-03T00:47:01.329Z,2970
2022-10-03T00:48:01.211Z,3824
2022-10-03T00:50:01.494Z,2801
2022-10-03T00:51:01.194Z,3663
2022-10-03T00:52:01.203Z,3663
2022-10-03T00:53:01.198Z,2725
2022-10-03T00:55:01.496Z,3663
2022-10-03T00:56:01.356Z,2905
2022-10-03T00:57:01.312Z,3356
2022-10-03T00:58:01.328Z,3553
2022-10-03T01:00:01.519Z,3315
2022-10-03T01:01:01.337Z,2847
2022-10-03T01:02:01.331Z,3702
2022-10-03T01:03:01.305Z,3231
2022-10-03T01:05:01.533Z,3802
2022-10-03T01:06:01.344Z,2640
2022-10-03T01:07:01.313Z,3769
2022-10-03T01:08:01.217Z,2888
2022-10-03T01:10:01.520Z,3411
2022-10-03T01:11:01.213Z,3769
2022-10-03T01:12:01.203Z,3934
2022-10-03T01:13:01.228Z,3618
2022-10-03T01:15:01.529Z,3535
2022-10-03T01:16:01.298Z,2611
2022-10-03T01:17:01.209Z,3505
2022-10-03T01:18:01.217Z,3597
2022-10-03T01:20:01.511Z,2530
2022-10-03T01:21:01.209Z,3535
2022-10-03T01:22:01.203Z,3128
2022-10-03T01:23:01.268Z,3327
2022-10-03T01:25:01.511Z,3618
2022-10-03T01:26:01.213Z,2611
2022-10-03T01:27:01.206Z,3663
2022-10-03T01:28:01.277Z,3505
2022-10-03T01:30:01.481Z,3545
2022-10-03T01:31:01.349Z,3607
2022-10-03T01:32:01.218Z,2611
2022-10-03T01:33:01.314Z,3495
2022-10-03T01:35:01.549Z,3535
2022-10-03T01:36:01.209Z,3394
2022-10-03T01:37:01.243Z,3394
2022-10-03T01:38:01.230Z,3113
2022-10-03T01:40:01.529Z,2801
2022-10-03T01:41:01.230Z,3343
2022-10-03T01:42:01.235Z,2489
2022-10-03T01:43:01.237Z,3149
2022-10-03T01:45:01.533Z,2324
2022-10-03T01:46:01.215Z,3305
2022-10-03T01:47:01.259Z,3384
2022-10-03T01:48:01.232Z,3356
2022-10-03T01:50:01.529Z,2689
2022-10-03T01:51:01.223Z,3681
2022-10-03T01:52:01.246Z,2913
2022-10-03T01:53:01.220Z,3639
2022-10-03T01:55:01.524Z,3898
2022-10-03T01:56:01.216Z,3327
2022-10-03T01:57:01.248Z,2514
2022-10-03T01:58:01.235Z,3185
2022-10-03T02:00:01.558Z,3356
2022-10-03T02:01:01.310Z,3597
2022-10-03T02:02:01.258Z,3394
2022-10-03T02:03:01.246Z,3586
2022-10-03T02:05:01.536Z,2489
2022-10-03T02:06:01.246Z,3586
2022-10-03T02:07:01.250Z,2696
2022-10-03T02:08:01.229Z,2537
2022-10-03T02:10:01.533Z,3203
2022-10-03T02:11:01.231Z,2921
2022-10-03T02:12:01.243Z,3692
2022-10-03T02:13:01.227Z,2793
2022-10-03T02:15:01.548Z,2855
2022-10-03T02:16:01.295Z,3586
2022-10-03T02:17:01.237Z,3495
2022-10-03T02:18:01.246Z,2704
2022-10-03T02:20:01.536Z,2603
2022-10-03T02:21:01.240Z,3365
2022-10-03T02:22:01.230Z,1967
2022-10-03T02:23:01.253Z,3140
2022-10-03T02:25:01.536Z,2461
2022-10-03T02:26:01.255Z,3240
2022-10-03T02:27:01.252Z,3113
2022-10-03T02:28:01.290Z,3495
2022-10-03T02:30:01.578Z,3618
2022-10-03T02:31:01.254Z,2551
2022-10-03T02:32:01.279Z,3315
2022-10-03T02:33:01.349Z,3277
2022-10-03T02:35:01.541Z,3372
2022-10-03T02:36:01.365Z,2611
2022-10-03T02:37:01.345Z,3702
2022-10-03T02:38:01.389Z,2823
2022-10-03T02:40:01.547Z,2829
2022-10-03T02:41:01.350Z,3287
2022-10-03T02:42:01.359Z,3287
2022-10-03T02:43:01.351Z,3394
2022-10-03T02:45:01.548Z,2501
2022-10-03T02:46:01.381Z,3040
2022-10-03T02:47:01.240Z,2741
2022-10-03T02:48:20.072Z,3535
2022-10-03T02:50:01.549Z,2855
2022-10-03T02:51:01.260Z,3545
2022-10-03T02:52:01.263Z,2847
2022-10-03T02:53:01.261Z,3618
2022-10-03T02:55:01.548Z,3535
2022-10-03T02:56:01.266Z,3495
2022-10-03T02:57:01.367Z,2574
2022-10-03T02:58:01.263Z,3296
2022-10-03T03:00:01.549Z,3261
2022-10-03T03:01:01.428Z,2659
2022-10-03T03:02:01.382Z,3240
2022-10-03T03:03:01.361Z,3128
2022-10-03T03:05:01.558Z,3277
2022-10-03T03:06:01.379Z,2401
2022-10-03T03:07:01.350Z,2255
2022-10-03T03:08:01.362Z,2583
2022-10-03T03:10:01.576Z,2872
2022-10-03T03:11:01.259Z,3431
2022-10-03T03:12:01.284Z,3394
2022-10-03T03:13:01.243Z,2530
2022-10-03T03:15:01.594Z,2537
2022-10-03T03:16:01.308Z,3296
2022-10-03T03:17:01.271Z,2689
2022-10-03T03:18:01.261Z,3563
2022-10-03T03:20:01.562Z,2793
2022-10-03T03:21:01.259Z,3296
2022-10-03T03:22:01.266Z,2024
2022-10-03T03:23:01.255Z,2823
2022-10-03T03:25:01.565Z,2300
2022-10-03T03:26:01.262Z,3077
2022-10-03T03:27:01.261Z,4134
2022-10-03T03:28:01.305Z,3040
2022-10-03T03:30:01.553Z,2683
2022-10-03T03:31:01.264Z,3065
2022-10-03T03:32:01.307Z,2374
2022-10-03T03:33:01.262Z,3167
2022-10-03T03:35:01.601Z,2530
2022-10-03T03:36:01.270Z,3004
2022-10-03T03:37:01.290Z,2195
2022-10-03T03:38:01.269Z,2741
2022-10-03T03:40:01.576Z,2640
2022-10-03T03:41:01.276Z,3128
2022-10-03T03:42:01.268Z,2783
2022-10-03T03:43:01.263Z,3185
2022-10-03T03:45:01.574Z,3356
2022-10-03T03:46:01.379Z,2338
2022-10-03T03:47:01.270Z,3065
2022-10-03T03:48:01.270Z,2888
2022-10-03T03:50:01.549Z,2725
2022-10-03T03:51:01.266Z,2414
2022-10-03T03:52:01.276Z,3032
2022-10-03T03:53:01.266Z,2438
2022-10-03T03:55:01.572Z,2560
2022-10-03T03:56:01.271Z,2979
2022-10-03T03:57:01.292Z,2861
2022-10-03T03:58:01.282Z,2068
2022-10-03T04:00:01.580Z,2255
2022-10-03T04:01:01.319Z,2704
2022-10-03T04:02:01.362Z,2466
2022-10-03T04:03:01.305Z,3032
2022-10-03T04:05:01.570Z,2501
2022-10-03T04:06:01.280Z,4026
2022-10-03T04:07:01.281Z,2913
2022-10-03T04:08:01.284Z,3421
2022-10-03T04:10:01.584Z,2647
2022-10-03T04:11:01.261Z,2414
2022-10-03T04:12:01.285Z,1845
2022-10-03T04:13:01.407Z,2078
2022-10-03T04:15:01.584Z,1890
2022-10-03T04:16:01.378Z,2962
2022-10-03T04:17:01.389Z,2280
2022-10-03T04:18:01.394Z,2829
2022-10-03T04:20:01.586Z,3372
2022-10-03T04:21:01.281Z,3240
2022-10-03T04:22:01.281Z,2514
2022-10-03T04:23:01.285Z,3327
2022-10-03T04:25:01.649Z,2880
2022-10-03T04:26:01.263Z,3050
2022-10-03T04:27:01.311Z,3004
2022-10-03T04:28:01.355Z,3077
2022-10-03T04:30:01.602Z,2710
2022-10-03T04:31:01.286Z,2324
2022-10-03T04:32:01.366Z,2921
2022-10-03T04:33:01.267Z,2855
2022-10-03T04:35:01.628Z,2990
2022-10-03T04:36:01.266Z,2466
2022-10-03T04:37:01.398Z,3261
2022-10-03T04:38:01.414Z,3140
2022-10-03T04:40:01.618Z,2793
2022-10-03T04:41:01.296Z,2017
2022-10-03T04:42:01.393Z,2170
2022-10-03T04:43:01.274Z,2380
2022-10-03T04:45:01.578Z,3535
2022-10-03T04:46:01.363Z,2438
2022-10-03T04:47:01.303Z,3194
2022-10-03T04:48:01.310Z,2201
2022-10-03T04:50:01.602Z,3261
2022-10-03T04:51:01.303Z,3835
2022-10-03T04:52:01.280Z,3327
2022-10-03T04:53:01.278Z,2632
2022-10-03T04:55:01.576Z,2560
2022-10-03T04:56:01.277Z,3365
2022-10-03T04:57:01.290Z,2247
2022-10-03T04:58:04.844Z,2632
2022-10-03T05:00:01.602Z,3343
2022-10-03T05:01:01.312Z,3149
2022-10-03T05:02:01.351Z,3176
2022-10-03T05:03:01.284Z,3456
2022-10-03T05:05:01.610Z,3563
2022-10-03T05:06:01.318Z,2318
2022-10-03T05:07:01.330Z,3113
2022-10-03T05:08:01.323Z,2394
2022-10-03T05:10:05.451Z,2353
2022-10-03T05:11:01.319Z,3365
2022-10-03T05:12:01.412Z,2134
2022-10-03T05:13:01.435Z,3212
2022-10-03T05:15:01.617Z,3525
2022-10-03T05:16:01.447Z,3485
2022-10-03T05:17:01.415Z,3485
2022-10-03T05:18:01.406Z,3681
2022-10-03T05:20:01.540Z,3734
2022-10-03T05:21:01.401Z,2823
2022-10-03T05:22:01.311Z,3607
2022-10-03T05:23:01.312Z,2696
2022-10-03T05:25:01.618Z,2521
2022-10-03T05:26:16.575Z,3854
2022-10-03T05:27:01.305Z,2509
2022-10-03T05:28:01.379Z,3525
2022-10-03T05:30:01.617Z,3734
2022-10-03T05:31:01.326Z,3639
2022-10-03T05:32:01.371Z,3639
2022-10-03T05:33:05.081Z,3710
2022-10-03T05:35:01.617Z,3681
2022-10-03T05:36:01.426Z,3607
2022-10-03T05:37:01.316Z,3780
2022-10-03T05:38:01.308Z,3015
2022-10-03T05:40:01.604Z,2760
2022-10-03T05:41:01.295Z,3898
2022-10-03T05:42:21.351Z,3158
2022-10-03T05:43:01.305Z,3934
2022-10-03T05:45:01.620Z,3934
2022-10-03T05:46:01.370Z,3015
2022-10-03T05:47:01.319Z,3720
2022-10-03T05:48:01.314Z,2710
2022-10-03T05:50:03.035Z,4037
2022-10-03T05:51:01.306Z,4226
2022-10-03T05:52:01.333Z,2979
2022-10-03T05:53:01.317Z,4154
2022-10-03T05:55:01.623Z,4026
2022-10-03T05:56:01.342Z,3394
2022-10-03T05:57:01.345Z,3854
2022-10-03T05:58:01.331Z,3128
2022-10-03T06:00:01.620Z,2970
2022-10-03T06:01:01.353Z,4335
2022-10-03T06:02:01.488Z,3343
2022-10-03T06:03:01.369Z,4226
2022-10-03T06:05:01.606Z,4323
2022-10-03T06:06:01.432Z,3343
2022-10-03T06:07:01.462Z,4595
2022-10-03T06:08:01.456Z,3553
2022-10-03T06:10:01.605Z,4648
2022-10-03T06:11:01.310Z,5016
2022-10-03T06:12:01.343Z,4784
2022-10-03T06:13:01.337Z,4675
2022-10-03T06:15:01.619Z,4771
2022-10-03T06:16:01.390Z,4106
2022-10-03T06:17:01.311Z,3791
2022-10-03T06:18:01.342Z,4011
2022-10-03T06:20:01.645Z,2760
2022-10-03T06:21:01.333Z,3356
2022-10-03T06:22:01.319Z,4689
2022-10-03T06:23:05.028Z,3887
2022-10-03T06:25:01.616Z,3802
2022-10-03T06:26:01.313Z,4608
2022-10-03T06:27:01.351Z,3327
2022-10-03T06:28:01.356Z,4385
2022-10-03T06:30:01.650Z,4505
2022-10-03T06:31:01.420Z,3315
2022-10-03T06:32:01.330Z,4348
2022-10-03T06:33:01.334Z,3563
2022-10-03T06:35:01.615Z,3563
2022-10-03T06:36:01.353Z,4716
2022-10-03T06:37:01.349Z,3824
2022-10-03T06:38:01.323Z,4855
2022-10-03T06:40:04.123Z,4452
2022-10-03T06:41:01.328Z,3403
2022-10-03T06:42:01.357Z,4478
2022-10-03T06:43:01.351Z,3249
2022-10-03T06:45:01.650Z,3305
2022-10-03T06:46:01.408Z,4290
2022-10-03T06:47:01.338Z,3356
2022-10-03T06:48:01.343Z,4083
2022-10-03T06:50:01.666Z,4290
2022-10-03T06:51:01.351Z,4945
2022-10-03T06:52:01.325Z,4884
2022-10-03T06:53:01.338Z,4983
2022-10-03T06:55:01.622Z,5041
2022-10-03T06:56:01.355Z,4662
2022-10-03T06:57:01.353Z,4926
2022-10-03T06:58:01.357Z,4556
2022-10-03T07:00:01.622Z,4608
2022-10-03T07:01:01.408Z,4761
2022-10-03T07:02:01.406Z,4870
2022-10-03T07:03:01.445Z,5041
2022-10-03T07:05:01.639Z,4771
2022-10-03T07:06:01.365Z,3443
2022-10-03T07:07:01.377Z,4492
2022-10-03T07:08:01.371Z,3443
2022-10-03T07:10:01.656Z,3249
2022-10-03T07:11:01.365Z,4916
2022-10-03T07:12:01.370Z,3639
2022-10-03T07:13:01.381Z,4402
2022-10-03T07:15:01.654Z,4238
2022-10-03T07:16:26.318Z,3092
2022-10-03T07:17:01.541Z,4716
2022-10-03T07:18:01.476Z,3563
2022-10-03T07:20:01.663Z,3734
2022-10-03T07:21:01.456Z,4335
2022-10-03T07:22:01.455Z,3505
2022-10-03T07:23:01.460Z,4716
2022-10-03T07:25:01.630Z,4278
2022-10-03T07:26:01.359Z,3203
2022-10-03T07:27:01.350Z,4452
2022-10-03T07:28:01.377Z,3476
2022-10-03T07:30:01.669Z,2717
2022-10-03T07:31:01.382Z,4106
2022-10-03T07:32:01.357Z,3249
2022-10-03T07:33:01.362Z,3632
2022-10-03T07:35:01.671Z,4238
2022-10-03T07:36:01.368Z,3835
2022-10-03T07:37:01.347Z,4011
2022-10-03T07:38:01.350Z,4134
2022-10-03T07:40:01.656Z,4315
2022-10-03T07:41:01.360Z,4186
2022-10-03T07:42:01.372Z,4106
2022-10-03T07:43:01.355Z,4250
2022-10-03T07:45:01.671Z,3495
2022-10-03T07:46:01.414Z,3734
2022-10-03T07:47:01.349Z,4729
2022-10-03T07:48:01.391Z,3535
2022-10-03T07:50:01.649Z,3663
2022-10-03T07:51:01.385Z,4543
2022-10-03T07:52:01.391Z,3249
2022-10-03T07:53:01.384Z,4202
2022-10-03T07:55:01.675Z,4452
2022-10-03T07:56:03.839Z,5116
2022-10-03T07:57:01.349Z,3913
2022-10-03T07:58:01.382Z,4926
2022-10-03T08:00:01.672Z,4855
2022-10-03T08:01:01.549Z,4983
2022-10-03T08:02:01.513Z,4045
2022-10-03T08:03:01.552Z,4364
2022-10-03T08:05:01.604Z,4826
2022-10-03T08:06:01.474Z,3485
2022-10-03T08:07:01.378Z,4154
2022-10-03T08:08:01.359Z,3149
2022-10-03T08:10:01.689Z,2996
2022-10-03T08:11:01.381Z,4556
2022-10-03T08:12:01.370Z,4364
2022-10-03T08:13:01.375Z,4262
2022-10-03T08:15:01.665Z,3104
2022-10-03T08:16:01.624Z,3681
2022-10-03T08:17:01.389Z,2996
2022-10-03T08:18:01.374Z,3185
2022-10-03T08:20:01.659Z,3277
2022-10-03T08:21:01.503Z,3835
2022-10-03T08:22:01.486Z,3649
2022-10-03T08:23:01.492Z,2717
2022-10-03T08:25:02.822Z,2954
2022-10-03T08:26:01.504Z,3744
2022-10-03T08:27:01.480Z,2937
2022-10-03T08:28:01.525Z,3780
2022-10-03T08:30:01.654Z,2793
2022-10-03T08:31:01.542Z,2921
2022-10-03T08:32:01.399Z,3734
2022-10-03T08:33:01.402Z,2666
2022-10-03T08:35:01.698Z,2551
2022-10-03T08:36:01.403Z,3515
2022-10-03T08:37:01.406Z,2929
2022-10-03T08:38:01.414Z,3945
2022-10-03T08:40:01.694Z,2815
2022-10-03T08:41:01.498Z,3573
2022-10-03T08:42:01.497Z,2683
2022-10-03T08:43:01.499Z,3545
2022-10-03T08:45:01.705Z,3573
2022-10-03T08:46:01.510Z,3128
2022-10-03T08:47:01.504Z,2285
2022-10-03T08:48:01.500Z,3057
2022-10-03T08:50:05.211Z,3128
2022-10-03T08:51:01.494Z,3553
2022-10-03T08:52:01.508Z,2760
2022-10-03T08:53:01.505Z,3553
2022-10-03T08:55:01.729Z,3607
2022-10-03T08:56:01.540Z,3515
2022-10-03T08:57:01.410Z,3296
2022-10-03T08:58:01.416Z,2332
2022-10-03T09:00:01.708Z,2537
2022-10-03T09:01:01.417Z,3122
2022-10-03T09:02:01.527Z,3015
2022-10-03T09:03:31.788Z,2353
2022-10-03T09:05:01.674Z,3140
2022-10-03T09:06:01.419Z,2311
2022-10-03T09:07:17.353Z,2937
2022-10-03T09:08:01.521Z,2394
2022-10-03T09:10:01.680Z,2929
2022-10-03T09:11:01.529Z,2489
2022-10-03T09:12:01.513Z,2946
2022-10-03T09:13:01.419Z,2872
2022-10-03T09:15:01.679Z,2338
2022-10-03T09:16:01.488Z,3249
2022-10-03T09:17:01.387Z,3372
2022-10-03T09:18:01.408Z,2480
2022-10-03T09:20:01.687Z,2855
2022-10-03T09:21:01.448Z,2102
2022-10-03T09:22:01.425Z,2829
2022-10-03T09:23:01.418Z,2861
2022-10-03T09:25:01.693Z,2962
2022-10-03T09:26:01.413Z,2806
2022-10-03T09:27:01.421Z,2195
2022-10-03T09:28:01.437Z,2741
2022-10-03T09:30:01.725Z,2084
2022-10-03T09:31:01.463Z,2338
2022-10-03T09:32:01.403Z,2146
2022-10-03T09:33:01.545Z,1639
2022-10-03T09:35:04.869Z,1850
2022-10-03T09:36:01.438Z,2247
2022-10-03T09:37:01.403Z,2970
2022-10-03T09:38:01.414Z,2134
2022-10-03T09:40:01.713Z,2888
2022-10-03T09:41:01.558Z,2659
2022-10-03T09:42:01.410Z,2072
2022-10-03T09:43:01.426Z,2768
2022-10-03T09:45:01.721Z,2855
2022-10-03T09:46:01.552Z,1884
2022-10-03T09:47:01.456Z,2775
2022-10-03T09:48:01.431Z,2647
2022-10-03T09:50:01.722Z,2537
2022-10-03T09:51:01.436Z,1840
2022-10-03T09:52:03.561Z,2272
2022-10-03T09:53:01.542Z,2374
2022-10-03T09:55:01.705Z,2324
2022-10-03T09:56:01.405Z,2696
2022-10-03T09:57:01.420Z,1967
2022-10-03T09:58:01.404Z,2598
2022-10-03T10:00:01.704Z,2696
2022-10-03T10:01:01.463Z,2647
2022-10-03T10:02:01.407Z,1933
2022-10-03T10:03:01.432Z,2530
2022-10-03T10:05:01.746Z,2509
2022-10-03T10:06:01.446Z,2374
2022-10-03T10:07:01.499Z,1973
2022-10-03T10:08:01.441Z,2666
2022-10-03T10:10:01.708Z,2768
2022-10-03T10:11:01.447Z,2583
2022-10-03T10:12:01.445Z,1967
2022-10-03T10:13:01.455Z,2146
2022-10-03T10:15:01.731Z,2259
2022-10-03T10:16:01.565Z,2537
2022-10-03T10:17:01.555Z,1865
2022-10-03T10:18:01.570Z,2501
2022-10-03T10:20:01.737Z,2530
2022-10-03T10:21:01.556Z,2421
2022-10-03T10:22:01.617Z,1830
2022-10-03T10:23:01.543Z,2280
2022-10-03T10:25:01.725Z,1961
2022-10-03T10:26:01.449Z,1890
2022-10-03T10:27:01.493Z,2158
2022-10-03T10:28:01.488Z,2300
2022-10-03T10:30:01.717Z,2421
2022-10-03T10:31:01.483Z,1835
2022-10-03T10:32:01.465Z,2414
2022-10-03T10:33:01.550Z,2428
2022-10-03T10:35:01.713Z,1616
2022-10-03T10:36:01.545Z,1735
2022-10-03T10:37:01.546Z,2568
2022-10-03T10:38:01.563Z,2583
2022-10-03T10:40:01.710Z,2338
2022-10-03T10:41:03.638Z,1961
2022-10-03T10:42:01.440Z,2489
2022-10-03T10:43:01.447Z,1921
2022-10-03T10:45:01.716Z,2583
2022-10-03T10:46:01.444Z,2084
2022-10-03T10:47:01.491Z,2793
2022-10-03T10:48:01.427Z,2823
2022-10-03T10:50:01.756Z,2801
2022-10-03T10:51:01.454Z,2259
2022-10-03T10:52:01.464Z,2318
2022-10-03T10:53:01.448Z,1754
2022-10-03T10:55:01.726Z,2318
2022-10-03T10:56:01.437Z,2760
2022-10-03T10:57:01.448Z,2806
2022-10-03T10:58:01.471Z,2078
2022-10-03T11:00:01.736Z,2024
2022-10-03T11:01:01.526Z,2990
2022-10-03T11:02:01.473Z,2214
2022-10-03T11:03:01.462Z,2855
2022-10-03T11:05:01.802Z,2905
2022-10-03T11:06:01.566Z,2962
2022-10-03T11:07:01.565Z,2689
2022-10-03T11:08:01.546Z,2162
2022-10-03T11:10:01.747Z,2815
2022-10-03T11:11:01.563Z,2347
2022-10-03T11:12:01.564Z,3403
2022-10-03T11:13:01.626Z,2445
2022-10-03T11:15:01.758Z,2696
2022-10-03T11:16:01.494Z,3476
2022-10-03T11:17:01.475Z,3553
2022-10-03T11:18:01.477Z,3212
2022-10-03T11:20:01.764Z,3203
2022-10-03T11:21:01.474Z,3649
2022-10-03T11:22:01.584Z,2318
2022-10-03T11:23:04.653Z,3411
2022-10-03T11:25:01.741Z,3607
2022-10-03T11:26:01.578Z,2783
2022-10-03T11:27:01.565Z,3692
2022-10-03T11:28:01.647Z,2666
2022-10-03T11:30:01.696Z,2521
2022-10-03T11:31:01.618Z,3913
2022-10-03T11:32:01.459Z,3158
2022-10-03T11:33:01.449Z,4302
2022-10-03T11:35:01.741Z,4816
2022-10-03T11:36:01.478Z,4202
2022-10-03T11:37:01.477Z,3221
2022-10-03T11:38:01.479Z,3968
2022-10-03T11:40:01.754Z,2880
2022-10-03T11:41:01.580Z,4250
2022-10-03T11:42:01.474Z,4435
2022-10-03T11:43:01.457Z,3495
2022-10-03T11:45:01.769Z,4959
2022-10-03T11:46:01.682Z,4011
2022-10-03T11:47:01.457Z,3140
2022-10-03T11:48:01.472Z,2839
2022-10-03T11:50:01.759Z,3843
2022-10-03T11:51:01.486Z,2905
2022-10-03T11:52:01.455Z,3411
2022-10-03T11:53:01.456Z,3411
2022-10-03T11:55:01.783Z,3607
2022-10-03T11:56:01.450Z,4056
2022-10-03T11:57:01.460Z,4214
2022-10-03T11:58:01.473Z,3040
2022-10-03T12:00:01.759Z,3240
2022-10-03T12:01:01.460Z,3968
2022-10-03T12:02:01.498Z,3104
2022-10-03T12:03:01.543Z,4056
2022-10-03T12:05:01.783Z,3365
2022-10-03T12:06:01.461Z,3835
2022-10-03T12:07:01.461Z,2970
2022-10-03T12:08:01.482Z,3791
2022-10-03T12:10:01.773Z,3563
2022-10-03T12:11:01.504Z,4513
2022-10-03T12:12:01.494Z,4414
2022-10-03T12:13:01.475Z,4402
2022-10-03T12:15:01.788Z,4595
2022-10-03T12:16:01.503Z,4166
2022-10-03T12:17:01.593Z,2970
2022-10-03T12:18:01.470Z,3077
2022-10-03T12:20:01.773Z,4784
2022-10-03T12:21:01.468Z,3315
2022-10-03T12:22:01.476Z,3607
2022-10-03T12:23:01.489Z,3597
2022-10-03T12:25:01.770Z,2847
2022-10-03T12:26:01.471Z,3305
2022-10-03T12:27:01.492Z,4072
2022-10-03T12:28:01.556Z,4134
2022-10-03T12:30:01.767Z,4465
2022-10-03T12:31:01.500Z,3485
2022-10-03T12:32:01.533Z,2666
2022-10-03T12:33:01.474Z,3525
2022-10-03T12:35:01.767Z,2551
2022-10-03T12:36:01.505Z,3249
2022-10-03T12:37:01.471Z,2523
2022-10-03T12:38:01.495Z,3212
2022-10-03T12:40:01.792Z,2186
2022-10-03T12:41:01.625Z,3032
2022-10-03T12:42:01.518Z,3509
2022-10-03T12:43:01.514Z,2689
2022-10-03T12:45:01.797Z,3170
2022-10-03T12:46:01.541Z,2544
2022-10-03T12:47:03.228Z,3274
2022-10-03T12:48:01.506Z,3324
2022-10-03T12:50:01.778Z,3274
2022-10-03T12:51:01.499Z,3324
2022-10-03T12:52:01.508Z,2571
2022-10-03T12:53:01.482Z,3311
2022-10-03T12:55:01.775Z,2361
2022-10-03T12:56:01.644Z,2951
2022-10-03T12:57:01.610Z,3006
2022-10-03T12:58:01.507Z,2336
2022-10-03T13:00:01.806Z,2328
2022-10-03T13:01:01.686Z,2315
2022-10-03T13:02:01.512Z,2763
2022-10-03T13:03:01.499Z,2739
2022-10-03T13:05:01.783Z,2869
2022-10-03T13:06:05.034Z,3122
2022-10-03T13:07:03.960Z,3122
2022-10-03T13:08:01.493Z,3083
2022-10-03T13:10:01.779Z,2259
2022-10-03T13:11:01.499Z,3015
2022-10-03T13:12:01.506Z,3143
2022-10-03T13:13:01.510Z,2469
2022-10-03T13:15:01.829Z,2382
2022-10-03T13:16:01.581Z,2903
2022-10-03T13:17:01.493Z,2903
2022-10-03T13:18:01.513Z,2255
2022-10-03T13:20:01.796Z,2174
2022-10-03T13:21:01.504Z,2739
2022-10-03T13:22:01.784Z,2903
2022-10-03T13:23:01.485Z,2017
2022-10-03T13:25:01.856Z,1920
2022-10-03T13:26:03.397Z,2825
2022-10-03T13:27:01.522Z,2676
2022-10-03T13:28:01.619Z,2869
2022-10-03T13:30:01.799Z,2289
2022-10-03T13:31:01.581Z,2643
2022-10-03T13:32:01.621Z,1916
2022-10-03T13:33:01.621Z,2696
2022-10-03T13:35:01.790Z,2283
2022-10-03T13:36:01.646Z,2959
2022-10-03T13:37:01.626Z,2265
2022-10-03T13:38:01.624Z,2855
2022-10-03T13:40:01.816Z,2711
2022-10-03T13:41:01.617Z,2992
2022-10-03T13:42:01.619Z,2388
2022-10-03T13:43:01.528Z,2476
2022-10-03T13:45:01.795Z,2537
2022-10-03T13:46:01.587Z,2809
2022-10-03T13:47:01.537Z,2965
2022-10-03T13:48:01.541Z,2361
2022-10-03T13:50:01.827Z,2283
2022-10-03T13:51:01.537Z,3049
2022-10-03T13:52:01.549Z,3194
2022-10-03T13:53:01.541Z,2495
2022-10-03T13:55:01.842Z,3293
2022-10-03T13:56:01.540Z,2951
2022-10-03T13:57:01.509Z,2903
2022-10-03T13:58:01.530Z,2855
2022-10-03T14:00:01.806Z,2739
2022-10-03T14:01:01.570Z,3074
2022-10-03T14:02:01.610Z,2469
2022-10-03T14:03:01.692Z,3258
2022-10-03T14:05:01.806Z,3639
2022-10-03T14:06:01.511Z,3772
2022-10-03T14:07:01.519Z,2502
2022-10-03T14:08:01.555Z,3212
2022-10-03T14:10:01.812Z,3221
2022-10-03T14:11:01.576Z,3179
2022-10-03T14:12:01.551Z,2551
2022-10-03T14:13:01.552Z,3057
2022-10-03T14:15:01.842Z,2283
2022-10-03T14:16:01.730Z,2965
2022-10-03T14:17:01.517Z,2747
2022-10-03T14:18:01.530Z,2328
2022-10-03T14:20:01.813Z,3143
2022-10-03T14:21:01.524Z,2434
2022-10-03T14:22:01.539Z,3116
2022-10-03T14:23:01.542Z,2495
2022-10-03T14:25:01.827Z,2839
2022-10-03T14:26:01.556Z,1889
2022-10-03T14:27:01.557Z,1979
2022-10-03T14:28:01.639Z,2413
2022-10-03T14:30:01.849Z,2476
2022-10-03T14:31:06.270Z,2164
2022-10-03T14:32:01.784Z,3152
2022-10-03T14:33:01.613Z,3394
2022-10-03T14:35:01.817Z,3394
2022-10-03T14:36:01.679Z,2220
2022-10-03T14:37:01.649Z,1974
2022-10-03T14:38:01.655Z,2668
2022-10-03T14:40:01.821Z,1925
2022-10-03T14:41:01.644Z,2203
2022-10-03T14:42:01.546Z,2259
2022-10-03T14:43:01.533Z,1827
2022-10-03T14:45:01.856Z,2495
2022-10-03T14:46:01.581Z,1791
2022-10-03T14:47:01.529Z,2457
2022-10-03T14:48:01.537Z,2265
2022-10-03T14:50:01.820Z,1879
2022-10-03T14:51:01.542Z,2140
2022-10-03T14:52:01.545Z,2120
2022-10-03T14:53:01.559Z,2120
2022-10-03T14:55:01.852Z,1600
2022-10-03T14:56:01.549Z,1936
2022-10-03T14:57:01.539Z,1857
2022-10-03T14:58:10.985Z,2191
2022-10-03T15:00:01.912Z,2000
2022-10-03T15:01:01.551Z,1984
2022-10-03T15:02:01.614Z,2012
2022-10-03T15:03:01.607Z,2088
2022-10-03T15:05:01.864Z,1532
2022-10-03T15:06:01.573Z,1644
2022-10-03T15:07:01.570Z,2076
2022-10-03T15:08:01.564Z,2120
2022-10-03T15:10:01.841Z,1519
2022-10-03T15:11:01.567Z,1832
2022-10-03T15:12:01.601Z,1827
2022-10-03T15:13:01.554Z,1731
2022-10-03T15:15:01.841Z,1404
2022-10-03T15:16:01.666Z,1682
2022-10-03T15:17:01.692Z,1691
2022-10-03T15:18:01.701Z,1275
2022-10-03T15:20:01.879Z,1768
2022-10-03T15:21:01.673Z,1618
2022-10-03T15:22:01.664Z,1258
2022-10-03T15:23:01.690Z,1593
2022-10-03T15:25:01.874Z,1593
2022-10-03T15:26:01.679Z,1235
2022-10-03T15:27:01.659Z,1549
2022-10-03T15:28:01.649Z,1627
2022-10-03T15:30:01.864Z,1553
2022-10-03T15:31:01.587Z,1565
2022-10-03T15:32:01.601Z,1670
2022-10-03T15:33:01.587Z,1174
2022-10-03T15:35:01.869Z,1536
2022-10-03T15:36:01.590Z,1289
2022-10-03T15:37:01.592Z,1562
2022-10-03T15:38:01.591Z,1495
2022-10-03T15:40:01.857Z,1528
2022-10-03T15:41:01.590Z,1589
2022-10-03T15:42:01.685Z,1665
2022-10-03T15:43:01.690Z,1540
2022-10-03T15:45:01.882Z,1696
2022-10-03T15:46:01.747Z,1731
2022-10-03T15:47:01.696Z,1715
2022-10-03T15:48:01.669Z,1736
2022-10-03T15:50:01.857Z,1884
2022-10-03T15:51:01.577Z,1945
2022-10-03T15:52:01.591Z,1584
2022-10-03T15:53:18.031Z,2094
2022-10-03T15:55:12.203Z,1736
2022-10-03T15:56:01.578Z,2120
2022-10-03T15:57:01.566Z,1758
2022-10-03T15:58:01.568Z,1377
2022-10-03T16:00:03.445Z,1316
2022-10-03T16:01:01.648Z,1916
2022-10-03T16:02:01.673Z,1640
2022-10-03T16:03:01.623Z,2082
2022-10-03T16:05:01.888Z,2255
2022-10-03T16:06:01.570Z,2220
2022-10-03T16:07:01.561Z,1817
2022-10-03T16:08:01.592Z,2361
2022-10-03T16:10:01.866Z,1817
2022-10-03T16:11:01.596Z,2483
2022-10-03T16:12:01.597Z,1817
2022-10-03T16:13:01.574Z,2457
2022-10-03T16:15:01.898Z,2558
2022-10-03T16:16:01.634Z,2523
2022-10-03T16:17:01.588Z,1951
2022-10-03T16:18:01.600Z,2408
2022-10-03T16:20:01.885Z,2770
2022-10-03T16:21:01.693Z,2661
2022-10-03T16:22:01.699Z,2098
2022-10-03T16:23:01.690Z,2704
2022-10-03T16:25:01.873Z,2689
2022-10-03T16:26:01.707Z,2717
2022-10-03T16:27:01.700Z,2033
2022-10-03T16:28:01.763Z,2516
2022-10-03T16:30:01.880Z,2608
2022-10-03T16:31:01.720Z,1808
2022-10-03T16:32:01.631Z,2544
2022-10-03T16:33:01.583Z,2516
2022-10-03T16:35:01.903Z,2551
2022-10-03T16:36:01.589Z,1990
2022-10-03T16:37:01.587Z,2315